Time;durP1;ratioP1;P1;durP2;ratioP2;P2;SDS_P1;SDS_P2;PMS_P1;PMS_P2;Temp;Humidity;BMP_temperature;BMP_pressure;BME280_temperature;BME280_humidity;BME280_pressure;Samples;Min_cycle;Max_cycle;Signal;HPM_P1;HPM_P2
2022/10/01 00:00:15;;;;;;;8.98;6.68;;;;;;;17.82;100.00;96087.97;5103006;27;20082;-44
2022/10/01 00:02:43;;;;;;;13.50;7.47;;;;;;;17.99;100.00;96086.59;5102316;27;20062;-40
2022/10/01 00:05:12;;;;;;;8.45;6.60;;;;;;;18.10;100.00;96094.06;5106847;27;20075;-45
2022/10/01 00:07:42;;;;;;;8.50;6.70;;;;;;;18.37;100.00;96088.75;5103118;27;20424;-42
2022/10/01 00:10:11;;;;;;;9.43;7.60;;;;;;;18.10;100.00;96087.88;5104500;27;20537;-41
2022/10/01 00:12:43;;;;;;;10.65;8.35;;;;;;;18.09;100.00;96087.06;5096788;27;20078;-41
2022/10/01 00:15:12;;;;;;;10.10;7.60;;;;;;;17.57;100.00;96085.78;5110806;27;20490;-41
2022/10/01 00:17:42;;;;;;;9.20;7.35;;;;;;;18.02;100.00;96091.53;5107654;27;20083;-48
2022/10/01 00:20:11;;;;;;;12.57;8.45;;;;;;;17.97;100.00;96089.50;5090177;28;20093;-44
2022/10/01 00:22:42;;;;;;;11.05;8.10;;;;;;;17.72;100.00;96091.81;5106298;27;20089;-43
2022/10/01 00:25:10;;;;;;;11.45;8.40;;;;;;;16.77;100.00;96095.09;5101941;27;20044;-41
2022/10/01 00:27:39;;;;;;;13.63;9.07;;;;;;;17.26;100.00;96091.56;5102584;27;20059;-41
2022/10/01 00:30:09;;;;;;;10.50;9.02;;;;;;;16.93;100.00;96092.16;5097710;27;20532;-48
2022/10/01 00:32:39;;;;;;;12.80;8.90;;;;;;;16.19;100.00;96103.09;5110473;27;20057;-43
2022/10/01 00:35:10;;;;;;;11.48;8.68;;;;;;;16.29;100.00;96098.31;5112307;27;20076;-47
2022/10/01 00:37:38;;;;;;;16.48;9.57;;;;;;;16.27;100.00;96100.31;5109205;27;20101;-44
2022/10/01 00:40:08;;;;;;;15.00;9.70;;;;;;;16.37;100.00;96097.34;5104741;27;20450;-42
2022/10/01 00:42:36;;;;;;;12.43;9.02;;;;;;;15.76;100.00;96103.03;5103187;28;20293;-43
2022/10/01 00:45:06;;;;;;;14.07;10.30;;;;;;;15.95;100.00;96101.63;5098229;27;20070;-42
2022/10/01 00:47:36;;;;;;;13.88;10.45;;;;;;;16.08;100.00;96096.44;5104089;27;20079;-43
2022/10/01 00:50:10;;;;;;;14.38;10.60;;;;;;;16.52;100.00;96103.47;5102712;27;20510;-47
2022/10/01 00:52:40;;;;;;;13.70;10.40;;;;;;;16.42;100.00;96102.13;5103843;27;20512;-41
2022/10/01 00:55:12;;;;;;;12.75;9.80;;;;;;;16.37;100.00;96100.84;5099834;28;20086;-42
2022/10/01 00:57:42;;;;;;;15.63;11.32;;;;;;;16.56;100.00;96107.38;5096487;28;20153;-41
2022/10/01 01:00:13;;;;;;;15.02;11.55;;;;;;;16.48;100.00;96099.53;5113276;27;21771;-45
2022/10/01 01:02:41;;;;;;;;;;;;;;;17.21;100.00;96086.81;5110562;27;20071;-41
2022/10/01 01:05:12;;;;;;;15.32;11.60;;;;;;;17.17;100.00;96087.38;5094489;28;19951;-48
2022/10/01 01:07:44;;;;;;;16.60;12.48;;;;;;;16.66;100.00;96080.44;5103575;27;20524;-43
2022/10/01 01:10:13;;;;;;;19.85;13.40;;;;;;;16.50;100.00;96078.03;5103923;27;20087;-45
2022/10/01 01:12:51;;;;;;;20.85;15.00;;;;;;;16.70;100.00;96075.56;5097987;27;20071;-43
2022/10/01 01:15:23;;;;;;;21.25;15.80;;;;;;;16.31;100.00;96072.34;5110319;27;20078;-41
2022/10/01 01:17:55;;;;;;;24.00;17.23;;;;;;;16.60;100.00;96073.22;5099435;27;20102;-40
2022/10/01 01:20:39;;;;;;;25.77;17.90;;;;;;;16.66;100.00;96071.63;5103763;27;20078;-40
2022/10/01 01:23:26;;;;;;;28.95;19.40;;;;;;;16.75;100.00;96071.31;5103915;27;20081;-41
2022/10/01 01:25:59;;;;;;;27.50;20.50;;;;;;;16.61;100.00;96070.34;5098958;28;20075;-40
2022/10/01 01:28:32;;;;;;;32.50;20.92;;;;;;;17.17;100.00;96063.41;5100648;28;20086;-40
2022/10/01 01:31:03;;;;;;;32.88;20.83;;;;;;;17.29;100.00;96060.00;5102405;27;20627;-44
2022/10/01 01:33:33;;;;;;;29.27;20.50;;;;;;;17.78;100.00;96063.56;5093384;28;20086;-40
2022/10/01 01:36:04;;;;;;;34.55;20.98;;;;;;;17.54;100.00;96064.84;5109137;27;20171;-41
2022/10/01 01:38:36;;;;;;;30.30;21.15;;;;;;;17.68;100.00;96063.88;5093763;27;20087;-42
2022/10/01 01:41:05;;;;;;;25.67;19.65;;;;;;;17.70;100.00;96067.19;5089979;27;20441;-42
2022/10/01 01:43:39;;;;;;;27.30;20.08;;;;;;;16.98;100.00;96070.25;5096139;28;20158;-38
2022/10/01 01:46:10;;;;;;;32.35;21.42;;;;;;;16.87;100.00;96068.97;5106583;27;20087;-38
2022/10/01 01:48:38;;;;;;;;;;;;;;;17.32;100.00;96072.94;5100019;28;20110;-46
2022/10/01 01:51:10;;;;;;;28.40;18.58;;;;;;;16.95;100.00;96073.31;5102732;27;19967;-41
2022/10/01 01:53:39;;;;;;;25.98;19.13;;;;;;;17.44;100.00;96067.88;5108817;27;20434;-40
2022/10/01 01:56:08;;;;;;;27.90;18.08;;;;;;;17.20;100.00;96063.84;5100825;27;20548;-38
2022/10/01 01:58:38;;;;;;;29.05;19.23;;;;;;;16.85;100.00;96071.81;5103012;27;20177;-45
2022/10/01 02:01:07;;;;;;;27.42;18.77;;;;;;;16.64;100.00;96077.13;5095005;28;20122;-47
2022/10/01 02:03:36;;;;;;;25.98;18.15;;;;;;;15.75;100.00;96072.13;5105368;28;20798;-45
2022/10/01 02:06:12;;;;;;;25.38;18.50;;;;;;;16.25;100.00;96073.09;5098145;28;20079;-43
2022/10/01 02:08:45;;;;;;;26.90;18.85;;;;;;;15.84;100.00;96075.50;5103536;28;20094;-43
2022/10/01 02:11:21;;;;;;;27.45;19.70;;;;;;;16.20;100.00;96077.31;5100949;28;20492;-44
2022/10/01 02:13:59;;;;;;;28.30;19.15;;;;;;;15.75;100.00;96069.47;5103691;28;20071;-43
2022/10/01 02:16:32;;;;;;;34.33;19.75;;;;;;;15.64;100.00;96069.91;5101672;28;20072;-42
2022/10/01 02:19:05;;;;;;;31.23;19.77;;;;;;;15.44;100.00;96080.28;5100134;28;20094;-41
2022/10/01 02:21:38;;;;;;;30.75;20.92;;;;;;;15.90;100.00;96078.25;5106380;28;20076;-47
2022/10/01 02:24:13;;;;;;;27.60;18.90;;;;;;;15.93;100.00;96079.69;5096359;27;20330;-44
2022/10/01 02:26:42;;;;;;;32.10;19.40;;;;;;;15.87;100.00;96078.63;5105846;27;20090;-40
2022/10/01 02:29:15;;;;;;;29.65;20.25;;;;;;;16.10;100.00;96075.81;5100801;27;20745;-43
2022/10/01 02:31:45;;;;;;;28.63;19.40;;;;;;;15.98;100.00;96073.81;5107017;27;20071;-42
2022/10/01 02:34:14;;;;;;;30.52;19.60;;;;;;;16.37;100.00;96066.25;5107381;27;20071;-42
2022/10/01 02:36:48;;;;;;;27.83;18.75;;;;;;;16.61;100.00;96069.53;5099090;27;20521;-45
2022/10/01 02:39:17;;;;;;;28.48;19.50;;;;;;;16.54;100.00;96066.81;5104128;27;20091;-43
2022/10/01 02:41:48;;;;;;;27.50;18.85;;;;;;;16.56;100.00;96066.63;5104393;27;20072;-46
2022/10/01 02:44:21;;;;;;;29.40;19.05;;;;;;;16.55;100.00;96063.16;5107840;27;20087;-45
2022/10/01 02:46:53;;;;;;;26.35;17.80;;;;;;;16.50;100.00;96054.09;5102588;28;20080;-46
2022/10/01 02:49:22;;;;;;;25.73;17.67;;;;;;;16.44;100.00;96054.84;5108335;27;20087;-49
2022/10/01 02:51:59;;;;;;;29.40;19.08;;;;;;;16.46;100.00;96044.84;5105707;28;20733;-46
2022/10/01 02:54:31;;;;;;;26.38;18.77;;;;;;;16.36;100.00;96055.81;5107530;27;20071;-41
2022/10/01 02:59:47;;;;;;;28.05;19.27;;;;;;;16.43;100.00;96043.38;5108255;27;20066;-44
2022/10/01 03:02:16;;;;;;;28.23;19.02;;;;;;;16.00;100.00;96043.38;5105405;27;20307;-43
2022/10/01 03:04:46;;;;;;;31.35;18.92;;;;;;;16.33;100.00;96035.72;5108695;27;20071;-48
2022/10/01 03:07:15;;;;;;;29.08;19.33;;;;;;;16.20;100.00;96040.06;5106246;27;20071;-41
2022/10/01 03:09:44;;;;;;;25.98;18.60;;;;;;;16.12;100.00;96039.19;5102380;27;20076;-47
2022/10/01 03:12:12;;;;;;;25.60;17.38;;;;;;;15.96;100.00;96036.78;5108400;27;20079;-39
2022/10/01 03:14:40;;;;;;;24.15;16.90;;;;;;;15.98;100.00;96042.75;5084712;27;20129;-40
2022/10/01 03:17:11;;;;;;;21.40;15.77;;;;;;;15.87;100.00;96038.75;5102185;28;20071;-40
2022/10/01 03:19:39;;;;;;;20.08;14.88;;;;;;;15.66;100.00;96042.19;5104781;27;20060;-42
2022/10/01 03:22:07;;;;;;;20.25;13.95;;;;;;;15.62;100.00;96050.66;5108369;27;20079;-43
2022/10/01 03:24:36;;;;;;;18.58;13.80;;;;;;;15.53;100.00;96052.63;5101901;27;20087;-47
2022/10/01 03:27:05;;;;;;;18.75;14.05;;;;;;;15.34;100.00;96050.50;5101376;28;20104;-41
2022/10/01 03:29:33;;;;;;;19.20;13.35;;;;;;;15.22;100.00;96041.38;5102960;27;20075;-39
2022/10/01 03:32:02;;;;;;;22.58;14.18;;;;;;;15.40;100.00;96045.28;5100138;27;20564;-46
2022/10/01 03:34:31;;;;;;;19.38;14.23;;;;;;;15.52;100.00;96042.16;5115603;27;20367;-45
2022/10/01 03:37:00;;;;;;;23.37;16.57;;;;;;;15.56;100.00;96054.91;5102773;27;20087;-40
2022/10/01 03:39:28;;;;;;;21.98;15.70;;;;;;;15.57;100.00;96047.75;5112584;27;20067;-46
2022/10/01 03:41:57;;;;;;;25.30;15.80;;;;;;;15.59;100.00;96037.78;5102379;28;20067;-40
2022/10/01 03:44:26;;;;;;;24.98;16.23;;;;;;;15.66;100.00;96030.72;5102669;27;20615;-40
2022/10/01 03:46:55;;;;;;;28.50;15.75;;;;;;;15.61;100.00;96023.25;5102191;27;20075;-44
2022/10/01 03:49:24;;;;;;;22.23;15.80;;;;;;;15.52;100.00;96028.88;5108505;27;20063;-40
2022/10/01 03:51:53;;;;;;;23.52;14.70;;;;;;;15.58;100.00;96018.31;5101078;27;20075;-39
2022/10/01 03:54:22;;;;;;;23.52;15.57;;;;;;;15.43;100.00;96025.50;5109755;27;20082;-41
2022/10/01 03:56:51;;;;;;;19.05;13.82;;;;;;;15.45;100.00;96026.16;5109194;27;20083;-43
2022/10/01 03:59:20;;;;;;;19.42;14.23;;;;;;;15.44;100.00;96024.50;5110408;27;20537;-40
2022/10/01 04:01:48;;;;;;;18.38;12.52;;;;;;;15.37;100.00;96026.25;5109353;27;20082;-42
2022/10/01 04:04:16;;;;;;;19.65;13.98;;;;;;;15.34;100.00;96030.09;5100819;27;20095;-40
2022/10/01 04:06:45;;;;;;;20.23;14.07;;;;;;;15.35;100.00;96025.63;5093226;28;20059;-41
2022/10/01 04:09:15;;;;;;;18.63;13.05;;;;;;;15.29;100.00;96029.00;5096763;27;20094;-39
2022/10/01 04:11:43;;;;;;;18.38;13.60;;;;;;;15.26;100.00;96022.22;5099492;28;20066;-43
2022/10/01 04:14:12;;;;;;;18.85;11.98;;;;;;;15.18;100.00;96030.31;5097371;27;20081;-41
2022/10/01 04:16:40;;;;;;;21.33;12.75;;;;;;;15.18;100.00;96036.44;5087484;27;20518;-45
2022/10/01 04:19:08;;;;;;;20.23;13.25;;;;;;;15.15;100.00;96028.00;5103827;27;20074;-39
2022/10/01 04:21:38;;;;;;;19.05;13.35;;;;;;;15.18;100.00;96027.66;5099517;27;20088;-47
2022/10/01 04:24:06;;;;;;;17.92;12.60;;;;;;;15.13;100.00;96025.53;5101818;27;20083;-44
2022/10/01 04:26:36;;;;;;;20.80;14.05;;;;;;;15.25;100.00;96025.91;5107072;27;20079;-42
2022/10/01 04:29:04;;;;;;;21.37;13.67;;;;;;;15.22;100.00;96033.41;5101927;27;20450;-40
2022/10/01 04:31:33;;;;;;;22.58;14.32;;;;;;;15.23;100.00;96037.72;5106442;27;20496;-40
2022/10/01 04:34:03;;;;;;;19.50;12.38;;;;;;;15.12;100.00;96036.34;5104342;27;20446;-41
2022/10/01 04:36:31;;;;;;;19.17;13.32;;;;;;;15.17;100.00;96031.28;5102772;28;20095;-39
2022/10/01 04:39:00;;;;;;;15.90;11.40;;;;;;;15.13;100.00;96037.97;5105848;27;20534;-46
2022/10/01 04:41:30;;;;;;;22.25;10.38;;;;;;;14.95;100.00;96041.00;5102763;27;20071;-50
2022/10/01 04:44:00;;;;;;;13.07;9.77;;;;;;;14.99;100.00;96039.63;5104661;27;20098;-46
2022/10/01 04:46:29;;;;;;;13.02;9.02;;;;;;;14.45;100.00;96045.94;5100710;27;20074;-41
2022/10/01 04:48:58;;;;;;;13.07;10.35;;;;;;;14.33;100.00;96052.66;5104462;28;20082;-44
2022/10/01 04:51:26;;;;;;;16.10;11.73;;;;;;;14.87;100.00;96036.59;5099903;27;20112;-41
2022/10/01 04:53:54;;;;;;;15.40;11.85;;;;;;;14.92;100.00;96039.53;5100794;28;20079;-44
2022/10/01 04:56:23;;;;;;;17.00;13.05;;;;;;;14.85;100.00;96040.44;5099814;27;20525;-50
2022/10/01 04:58:51;;;;;;;17.42;11.50;;;;;;;14.65;100.00;96040.13;5101513;27;20098;-49
2022/10/01 05:01:21;;;;;;;18.88;12.15;;;;;;;14.93;100.00;96046.50;5095184;27;20075;-42
2022/10/01 05:03:49;;;;;;;17.80;12.70;;;;;;;15.18;100.00;96040.94;5099977;27;20081;-49
2022/10/01 05:06:17;;;;;;;16.92;12.50;;;;;;;14.92;100.00;96036.06;5104486;27;20155;-47
2022/10/01 05:08:54;;;;;;;16.50;12.48;;;;;;;15.17;100.00;96028.63;5078360;27;20642;-41
2022/10/01 05:11:22;;;;;;;16.40;11.60;;;;;;;15.27;100.00;96026.53;5063640;28;20448;-41
2022/10/01 05:13:50;;;;;;;17.90;12.35;;;;;;;15.37;100.00;96036.88;5066176;28;20092;-44
2022/10/01 05:16:18;;;;;;;16.05;12.13;;;;;;;15.18;100.00;96038.28;5063732;28;20440;-40
2022/10/01 05:18:47;;;;;;;17.20;11.82;;;;;;;15.25;100.00;96036.53;5064501;28;20068;-40
2022/10/01 05:21:15;;;;;;;19.13;12.38;;;;;;;15.20;100.00;96037.06;5065849;28;20084;-42
2022/10/01 05:23:43;;;;;;;17.25;12.60;;;;;;;15.27;100.00;96034.50;5066236;28;20088;-39
2022/10/01 05:26:13;;;;;;;20.23;13.18;;;;;;;15.00;100.00;96033.28;5064721;28;20677;-39
2022/10/01 05:28:43;;;;;;;17.90;12.82;;;;;;;15.13;100.00;96033.50;5066263;28;20068;-40
2022/10/01 05:31:12;;;;;;;20.23;12.60;;;;;;;15.25;100.00;96041.84;5062131;28;20130;-40
2022/10/01 05:33:41;;;;;;;16.65;11.70;;;;;;;15.17;100.00;96042.75;5060422;28;20083;-47
2022/10/01 05:36:09;;;;;;;15.32;11.77;;;;;;;15.13;100.00;96040.63;5062421;28;20069;-42
2022/10/01 05:38:37;;;;;;;17.73;12.15;;;;;;;15.44;100.00;96041.25;5067015;28;20080;-41
2022/10/01 05:41:06;;;;;;;15.57;11.35;;;;;;;15.39;100.00;96038.34;5063082;28;20530;-42
2022/10/01 05:43:36;;;;;;;15.80;11.63;;;;;;;15.10;100.00;96043.66;5063926;28;20182;-38
2022/10/01 05:46:05;;;;;;;14.68;11.20;;;;;;;15.92;100.00;96040.00;5063495;28;20091;-43
2022/10/01 05:48:35;;;;;;;15.63;11.23;;;;;;;15.96;100.00;96044.75;5060436;28;20512;-40
2022/10/01 05:51:05;;;;;;;;;;;;;;;16.27;100.00;96038.31;5065053;28;20073;-45
2022/10/01 05:53:35;;;;;;;16.52;10.85;;;;;;;15.95;100.00;96050.25;5064350;28;19988;-39
2022/10/01 05:56:04;;;;;;;14.35;11.10;;;;;;;16.40;100.00;96058.91;5064364;28;20523;-41
2022/10/01 05:58:32;;;;;;;15.70;11.60;;;;;;;16.48;100.00;96051.63;5065218;28;20083;-38
2022/10/01 06:01:02;;;;;;;14.57;10.77;;;;;;;16.26;100.00;96055.28;5064948;28;20080;-46
2022/10/01 06:03:31;;;;;;;16.02;11.23;;;;;;;16.45;100.00;96051.16;5058271;28;20080;-43
2022/10/01 06:05:59;;;;;;;14.45;11.13;;;;;;;16.64;100.00;96050.50;5064571;28;20140;-41
2022/10/01 06:08:27;;;;;;;49.97;33.92;;;;;;;16.48;100.00;96048.09;5062057;28;20065;-40
2022/10/01 06:10:59;;;;;;;24.08;15.75;;;;;;;16.63;100.00;96048.06;5062240;28;20542;-50
2022/10/01 06:13:28;;;;;;;26.60;19.50;;;;;;;17.22;100.00;96051.16;5057804;28;20483;-43
2022/10/01 06:15:56;;;;;;;14.07;10.95;;;;;;;17.09;100.00;96053.72;5061311;28;20088;-44
2022/10/01 06:18:26;;;;;;;13.25;10.45;;;;;;;17.03;100.00;96059.84;5058793;28;20072;-40
2022/10/01 06:20:54;;;;;;;14.15;10.38;;;;;;;17.51;100.00;96059.91;5049206;28;20539;-43
2022/10/01 06:23:22;;;;;;;15.45;10.20;;;;;;;17.36;100.00;96059.22;5048407;28;20107;-41
2022/10/01 06:25:51;;;;;;;13.82;9.90;;;;;;;17.62;100.00;96064.69;5046981;28;20091;-41
2022/10/01 06:28:19;;;;;;;13.23;10.43;;;;;;;17.94;100.00;96065.06;5046638;28;20068;-40
2022/10/01 06:30:48;;;;;;;13.93;10.02;;;;;;;17.54;100.00;96067.50;5049065;28;20084;-45
2022/10/01 06:33:17;;;;;;;13.10;9.88;;;;;;;17.69;100.00;96062.06;5044090;28;20087;-42
2022/10/01 06:35:48;;;;;;;12.48;10.18;;;;;;;17.56;100.00;96060.16;5048075;28;20085;-42
2022/10/01 06:38:18;;;;;;;14.70;9.80;;;;;;;17.79;100.00;96068.69;5047028;28;20080;-45
2022/10/01 06:40:52;;;;;;;15.50;9.50;;;;;;;17.46;100.00;96073.84;5047463;28;20522;-46
2022/10/01 06:43:20;;;;;;;13.43;10.23;;;;;;;17.31;100.00;96065.16;5045757;28;20471;-41
2022/10/01 06:45:48;;;;;;;11.48;8.70;;;;;;;17.18;100.00;96063.22;5050821;28;20084;-40
2022/10/01 06:48:18;;;;;;;13.05;9.95;;;;;;;17.82;100.00;96056.78;5050410;28;20713;-40
2022/10/01 06:50:51;;;;;;;13.90;10.13;;;;;;;17.75;100.00;96064.72;5051160;28;20096;-42
2022/10/01 06:53:19;;;;;;;11.90;9.65;;;;;;;17.19;100.00;96069.38;5047546;28;20668;-40
2022/10/01 06:55:48;;;;;;;13.18;8.88;;;;;;;17.90;100.00;96080.63;5045307;28;20081;-50
2022/10/01 06:58:19;;;;;;;13.80;10.10;;;;;;;18.35;100.00;96074.81;5046184;28;20084;-40
2022/10/01 07:00:48;;;;;;;11.00;8.73;;;;;;;17.45;100.00;96076.72;5047948;28;20085;-43
2022/10/01 07:03:18;;;;;;;11.27;9.07;;;;;;;17.74;100.00;96075.63;5045806;28;20084;-46
2022/10/01 07:05:48;;;;;;;11.15;8.18;;;;;;;18.25;100.00;96057.34;5051395;28;20085;-43
2022/10/01 07:08:17;;;;;;;13.38;8.50;;;;;;;18.05;100.00;96059.13;5046759;28;20077;-48
2022/10/01 07:10:45;;;;;;;12.45;9.20;;;;;;;18.19;100.00;96050.13;5048408;28;20077;-43
2022/10/01 07:13:15;;;;;;;12.35;8.52;;;;;;;17.55;100.00;96047.84;5042797;28;20076;-40
2022/10/01 07:15:44;;;;;;;9.48;8.00;;;;;;;18.40;100.00;96032.28;5048128;28;20088;-39
2022/10/01 07:18:13;;;;;;;8.45;7.30;;;;;;;18.95;100.00;96036.44;5047812;28;20088;-40
2022/10/01 07:20:41;;;;;;;11.60;8.10;;;;;;;18.74;100.00;96040.13;5047814;28;20168;-43
2022/10/01 07:23:13;;;;;;;10.50;7.38;;;;;;;18.58;100.00;96039.69;5048906;28;20061;-40
2022/10/01 07:25:42;;;;;;;10.75;7.15;;;;;;;18.24;100.00;96044.19;5049539;28;20084;-50
2022/10/01 07:28:16;;;;;;;8.07;7.00;;;;;;;19.06;100.00;96034.97;5044860;28;20076;-44
2022/10/01 07:30:47;;;;;;;8.75;7.40;;;;;;;19.24;100.00;96028.19;5049113;28;20076;-41
2022/10/01 07:33:17;;;;;;;11.00;7.65;;;;;;;18.88;100.00;96021.44;5042195;28;20089;-43
2022/10/01 07:35:46;;;;;;;;;;;;;;;19.17;100.00;96017.50;5050534;28;20480;-45
2022/10/01 07:38:16;;;;;;;9.60;6.60;;;;;;;18.84;100.00;96018.34;5046882;28;19952;-40
2022/10/01 07:40:44;;;;;;;7.03;6.17;;;;;;;18.81;100.00;96012.59;5050249;28;20080;-43
2022/10/01 07:43:13;;;;;;;9.02;6.97;;;;;;;19.05;100.00;96011.97;5045629;28;20076;-41
2022/10/01 07:45:41;;;;;;;7.85;6.20;;;;;;;19.32;100.00;96023.41;5045927;28;20080;-40
2022/10/01 07:48:10;;;;;;;7.78;5.95;;;;;;;19.57;100.00;96031.53;5047379;28;20166;-40
2022/10/01 07:50:38;;;;;;;7.38;5.70;;;;;;;20.23;100.00;96022.38;5048517;28;20076;-41
2022/10/01 07:53:06;;;;;;;7.85;6.20;;;;;;;18.99;100.00;96020.78;5048411;28;20072;-41
2022/10/01 07:55:36;;;;;;;6.90;6.07;;;;;;;19.76;100.00;96011.13;5047932;28;20088;-51
2022/10/01 07:58:05;;;;;;;7.80;6.65;;;;;;;19.61;100.00;96016.75;5038119;28;20061;-44
2022/10/01 08:00:34;;;;;;;7.20;6.15;;;;;;;19.65;100.00;96017.16;5048377;28;20472;-44
2022/10/01 08:03:02;;;;;;;6.78;5.93;;;;;;;19.79;100.00;96009.91;5048566;28;20137;-43
2022/10/01 08:05:32;;;;;;;6.88;5.57;;;;;;;19.55;100.00;96003.38;5049526;28;20076;-45
2022/10/01 08:08:02;;;;;;;6.43;5.57;;;;;;;19.69;100.00;96005.00;5049602;28;20482;-42
2022/10/01 08:10:31;;;;;;;5.17;4.67;;;;;;;19.53;100.00;96008.94;5049582;28;20523;-46
2022/10/01 08:13:03;;;;;;;4.28;3.70;;;;;;;19.46;100.00;96002.78;5049274;28;20060;-42
2022/10/01 08:15:31;;;;;;;4.82;3.80;;;;;;;19.58;100.00;96008.28;5049584;28;20490;-40
2022/10/01 08:18:01;;;;;;;5.03;3.30;;;;;;;19.40;100.00;96001.78;5049217;28;20087;-45
2022/10/01 08:20:29;;;;;;;4.03;3.13;;;;;;;19.60;100.00;96001.69;5048884;28;20087;-42
2022/10/01 08:23:01;;;;;;;2.92;2.63;;;;;;;19.55;100.00;95992.69;5048850;28;20088;-41
2022/10/01 08:25:30;;;;;;;3.45;2.60;;;;;;;18.54;100.00;96001.09;5049500;28;20088;-42
2022/10/01 08:27:59;;;;;;;3.90;2.88;;;;;;;19.05;100.00;95990.56;5049064;28;20085;-40
2022/10/01 08:30:28;;;;;;;3.00;2.50;;;;;;;19.39;99.86;95996.66;5048741;28;20461;-42
2022/10/01 08:32:57;;;;;;;3.53;2.75;;;;;;;19.92;100.00;95991.06;5045130;28;20155;-41
2022/10/01 08:35:27;;;;;;;4.00;2.47;;;;;;;20.24;91.08;95996.47;5049516;28;20115;-45
2022/10/01 08:37:56;;;;;;;5.27;2.80;;;;;;;19.44;98.17;95995.00;5041810;28;20076;-45
2022/10/01 08:40:24;;;;;;;3.70;2.63;;;;;;;19.99;95.98;95985.69;5043099;28;20084;-39
2022/10/01 08:42:58;;;;;;;2.78;2.38;;;;;;;19.25;100.00;95982.50;5048271;28;20186;-41
2022/10/01 08:45:32;;;;;;;4.65;2.35;;;;;;;20.01;87.37;95979.09;5049484;28;20084;-45
2022/10/01 08:48:05;;;;;;;3.55;2.40;;;;;;;20.06;88.32;95968.56;5048801;28;20084;-50
2022/10/01 08:50:41;;;;;;;5.95;2.50;;;;;;;19.85;99.81;95979.59;5049165;28;20471;-45
2022/10/01 08:53:15;;;;;;;2.83;2.17;;;;;;;20.24;88.48;95970.50;5049050;28;20459;-43
2022/10/01 08:55:44;;;;;;;3.95;2.58;;;;;;;20.01;95.80;95975.59;5049268;28;20092;-40
2022/10/01 08:58:18;;;;;;;2.60;2.00;;;;;;;20.48;89.01;95976.09;5048531;28;20080;-41
2022/10/01 09:00:48;;;;;;;2.42;2.00;;;;;;;20.16;88.19;95970.75;5046379;28;20084;-43
2022/10/01 09:03:17;;;;;;;3.05;2.20;;;;;;;20.42;91.45;95964.38;5044493;28;20479;-43
2022/10/01 09:05:59;;;;;;;2.40;2.20;;;;;;;20.16;89.53;95957.34;5048567;28;20099;-42
2022/10/01 09:08:43;;;;;;;4.90;2.00;;;;;;;20.11;93.47;95962.56;5041295;28;20087;-42
2022/10/01 09:11:22;;;;;;;3.00;2.13;;;;;;;20.46;88.79;95959.41;5048496;28;20088;-45
2022/10/01 09:14:02;;;;;;;3.58;2.13;;;;;;;19.53;97.45;95965.31;5046688;28;20514;-42
2022/10/01 09:16:35;;;;;;;5.22;2.15;;;;;;;19.85;93.19;95955.50;5042549;28;20091;-39
2022/10/01 09:19:12;;;;;;;3.38;1.70;;;;;;;20.25;88.65;95956.06;5044410;28;20080;-46
2022/10/01 09:21:49;;;;;;;3.25;1.98;;;;;;;19.56;90.17;95952.34;5048625;28;20076;-41
2022/10/01 09:24:25;;;;;;;3.08;2.03;;;;;;;20.22;94.27;95953.81;5048266;28;20076;-42
2022/10/01 09:26:54;;;;;;;2.20;1.90;;;;;;;20.04;92.20;95959.09;5039177;28;20085;-41
2022/10/01 09:29:24;;;;;;;2.85;1.90;;;;;;;19.60;95.57;95958.91;5043808;28;20069;-44
2022/10/01 09:31:54;;;;;;;3.35;1.90;;;;;;;20.80;84.40;95958.09;5046778;28;20144;-43
2022/10/01 09:34:28;;;;;;;2.15;1.70;;;;;;;19.51;94.94;95959.34;5048351;28;20068;-47
2022/10/01 09:37:04;;;;;;;2.13;1.85;;;;;;;20.22;86.31;95955.69;5048620;28;20479;-47
2022/10/01 09:39:38;;;;;;;2.67;1.85;;;;;;;19.68;83.60;95952.50;5047336;28;20081;-40
2022/10/01 09:42:06;;;;;;;2.10;1.70;;;;;;;19.55;90.11;95961.41;5048738;28;20080;-43
2022/10/01 09:44:35;;;;;;;4.05;2.10;;;;;;;20.17;82.79;95961.69;5045249;28;20103;-40
2022/10/01 09:47:14;;;;;;;3.20;2.53;;;;;;;19.87;88.87;95966.81;5048612;28;20084;-49
2022/10/01 09:49:44;;;;;;;3.47;2.30;;;;;;;19.79;87.23;95972.44;5046084;28;20088;-43
2022/10/01 09:52:15;;;;;;;1.63;1.30;;;;;;;19.05;100.00;95974.53;5048450;28;20459;-40
2022/10/01 09:54:43;;;;;;;;;;;;;;;19.05;100.00;95965.69;5049787;28;20084;-41
2022/10/01 09:57:14;;;;;;;3.78;1.50;;;;;;;19.56;97.99;95971.06;5046616;28;19955;-40
2022/10/01 09:59:47;;;;;;;2.03;1.63;;;;;;;19.84;100.00;95983.31;5050790;28;20119;-42
2022/10/01 10:02:24;;;;;;;2.72;1.95;;;;;;;19.86;100.00;95978.56;5052335;28;20088;-44
2022/10/01 10:05:00;;;;;;;3.33;2.00;;;;;;;19.50;100.00;95981.78;5051991;28;20103;-44
2022/10/01 10:07:31;;;;;;;4.10;1.88;;;;;;;19.12;100.00;95990.56;5051810;28;20494;-41
2022/10/01 10:10:08;;;;;;;2.50;1.63;;;;;;;19.29;100.00;95989.06;5051454;28;20079;-42
2022/10/01 10:12:37;;;;;;;3.38;1.60;;;;;;;18.63;100.00;95976.63;5051400;28;20069;-42
2022/10/01 10:15:10;;;;;;;2.30;1.75;;;;;;;18.71;100.00;95987.13;5048101;28;20518;-45
2022/10/01 10:17:41;;;;;;;2.88;1.70;;;;;;;19.33;100.00;95992.13;5051141;28;20083;-42
2022/10/01 10:20:13;;;;;;;3.40;1.98;;;;;;;19.15;100.00;95990.97;5048689;28;20549;-41
2022/10/01 10:22:42;;;;;;;2.10;1.67;;;;;;;18.98;100.00;95985.25;5041587;28;20081;-43
2022/10/01 10:25:17;;;;;;;3.22;1.92;;;;;;;18.37;100.00;95990.81;5050752;28;20103;-45
2022/10/01 10:27:53;;;;;;;2.15;1.80;;;;;;;19.05;100.00;95998.59;5079765;28;20055;-43
2022/10/01 10:30:24;;;;;;;1.67;1.52;;;;;;;19.10;100.00;95993.44;5050333;28;20076;-40
2022/10/01 10:33:02;;;;;;;2.42;2.00;;;;;;;19.06;100.00;95991.38;5045175;28;20084;-43
2022/10/01 10:35:30;;;;;;;2.42;1.80;;;;;;;19.02;100.00;96009.69;5051393;28;20103;-49
2022/10/01 10:38:01;;;;;;;3.28;1.75;;;;;;;18.58;100.00;96003.16;5051548;28;20091;-41
2022/10/01 10:40:34;;;;;;;3.03;1.92;;;;;;;19.08;100.00;96002.72;5050897;28;20091;-44
2022/10/01 10:43:02;;;;;;;2.47;2.08;;;;;;;19.28;100.00;96003.47;5051019;28;20523;-40
2022/10/01 10:45:32;;;;;;;3.45;2.38;;;;;;;19.35;100.00;96014.97;5051309;28;20093;-42
2022/10/01 10:48:04;;;;;;;2.30;2.10;;;;;;;19.31;100.00;96011.09;5051207;28;20096;-42
2022/10/01 10:50:35;;;;;;;2.58;2.00;;;;;;;19.19;100.00;96016.25;5051263;28;20476;-41
2022/10/01 10:53:20;;;;;;;3.42;2.20;;;;;;;18.93;100.00;96008.28;5048219;28;20534;-47
2022/10/01 10:55:57;;;;;;;2.90;2.40;;;;;;;18.70;100.00;96011.34;5047264;28;20084;-50
2022/10/01 10:58:26;;;;;;;3.30;2.42;;;;;;;19.48;100.00;96008.75;5050578;28;20096;-42
2022/10/01 11:00:57;;;;;;;2.88;2.38;;;;;;;18.93;100.00;96003.75;5050934;28;20080;-40
2022/10/01 11:03:29;;;;;;;4.03;2.40;;;;;;;19.15;100.00;96007.00;5050621;28;20098;-47
2022/10/01 11:06:01;;;;;;;4.60;2.33;;;;;;;19.13;100.00;96011.75;5050814;28;20085;-41
2022/10/01 11:08:29;;;;;;;3.90;2.40;;;;;;;19.82;100.00;96004.09;5050209;28;20111;-39
2022/10/01 11:11:08;;;;;;;3.92;2.70;;;;;;;19.51;100.00;96004.81;5050293;28;20096;-40
2022/10/01 11:13:57;;;;;;;3.88;2.60;;;;;;;19.20;100.00;96001.84;5050595;28;20085;-42
2022/10/01 11:16:34;;;;;;;5.05;2.95;;;;;;;20.03;100.00;95997.63;5050646;28;20091;-44
2022/10/01 11:19:18;;;;;;;3.58;2.53;;;;;;;19.28;100.00;96002.66;5039035;28;20479;-41
2022/10/01 11:22:01;;;;;;;3.20;2.72;;;;;;;20.31;100.00;95989.19;5048493;28;20456;-42
2022/10/01 11:25:00;;;;;;;4.30;2.88;;;;;;;20.85;100.00;95990.41;5050291;28;20076;-42
2022/10/01 11:27:35;;;;;;;3.45;2.88;;;;;;;20.47;100.00;95987.81;5026818;28;20088;-40
2022/10/01 11:30:08;;;;;;;3.17;2.67;;;;;;;20.19;100.00;95993.59;5043799;28;20091;-43
2022/10/01 11:32:39;;;;;;;3.35;2.53;;;;;;;20.75;100.00;95984.72;5047246;28;20543;-47
2022/10/01 11:35:21;;;;;;;;;;;;;;;19.83;100.00;95998.56;5048604;28;20080;-42
2022/10/01 11:38:00;;;;;;;4.38;2.53;;;;;;;19.98;100.00;96003.59;5048299;28;19978;-45